Time;durP1;ratioP1;P1;durP2;ratioP2;P2;SDS_P1;SDS_P2;PMS_P1;PMS_P2;Temp;Humidity;BMP_temperature;BMP_pressure;BME280_temperature;BME280_humidity;BME280_pressure;Samples;Min_cycle;Max_cycle;Signal;HPM_P1;HPM_P2
2023/08/16 00:01:13;;;;;;;31.80;20.50;;;;;;;25.12;90.10;100023.98;105952;1257;74192;-68
2023/08/16 00:03:41;;;;;;;33.60;22.20;;;;;;;25.19;89.92;100025.39;105889;1253;68994;-68
2023/08/16 00:06:11;;;;;;;37.80;21.50;;;;;;;25.24;89.80;100025.23;105691;1259;73365;-68
2023/08/16 00:08:39;;;;;;;33.90;22.60;;;;;;;25.24;89.48;100026.23;105678;1257;62027;-69
2023/08/16 00:11:06;;;;;;;34.90;20.70;;;;;;;25.23;89.66;100024.58;105929;1255;60535;-69
2023/08/16 00:13:33;;;;;;;29.00;20.10;;;;;;;25.33;89.23;100028.52;105920;1257;74167;-73
2023/08/16 00:16:00;;;;;;;28.60;18.90;;;;;;;25.23;90.59;100030.99;105871;1257;69049;-68
2023/08/16 00:18:29;;;;;;;32.20;18.30;;;;;;;25.31;90.04;100026.81;105927;1259;72393;-68
2023/08/16 00:20:58;;;;;;;30.30;17.60;;;;;;;25.28;90.18;100029.63;105871;1256;61494;-67
2023/08/16 00:23:24;;;;;;;23.70;17.80;;;;;;;25.19;90.88;100031.10;105897;1254;60454;-68
2023/08/16 00:25:51;;;;;;;32.60;19.20;;;;;;;25.16;91.76;100027.48;105891;1256;74588;-66
2023/08/16 00:28:18;;;;;;;30.90;18.00;;;;;;;25.18;91.52;100027.08;105531;1254;69044;-67
2023/08/16 00:30:45;;;;;;;29.80;18.10;;;;;;;25.15;91.61;100027.27;105884;1259;73077;-69
2023/08/16 00:33:12;;;;;;;32.10;19.50;;;;;;;25.16;91.73;100028.80;105928;1253;62231;-70
2023/08/16 00:35:39;;;;;;;33.60;20.50;;;;;;;24.96;93.69;100024.20;105586;1253;60501;-71
2023/08/16 00:38:06;;;;;;;29.40;20.20;;;;;;;24.97;93.11;100025.77;105849;1256;74216;-69
2023/08/16 00:40:33;;;;;;;30.90;19.40;;;;;;;24.94;93.10;100026.05;105857;1257;69045;-69
2023/08/16 00:43:00;;;;;;;27.40;20.30;;;;;;;24.90;93.05;100028.03;105946;1257;72907;-68
2023/08/16 00:45:26;;;;;;;30.20;19.90;;;;;;;25.07;91.50;100026.67;105857;1255;61852;-67
2023/08/16 00:47:53;;;;;;;23.70;18.30;;;;;;;25.04;91.49;100028.98;105882;1254;60454;-67
2023/08/16 00:50:24;;;;;;;27.40;19.50;;;;;;;24.92;92.27;100031.98;105739;1260;73690;-69
2023/08/16 00:52:51;;;;;;;22.80;19.90;;;;;;;25.02;91.70;100032.08;105895;1257;69267;-68
2023/08/16 00:55:18;;;;;;;29.00;20.80;;;;;;;25.09;91.32;100033.70;105888;1257;73041;-69
2023/08/16 00:57:45;;;;;;;23.40;20.90;;;;;;;25.16;90.66;100037.91;105937;1254;61766;-72
2023/08/16 01:00:12;;;;;;;22.00;19.30;;;;;;;25.20;90.57;100034.20;105880;1254;60558;-68
2023/08/16 01:02:39;;;;;;;21.40;17.80;;;;;;;25.22;90.23;100037.18;105873;1256;74349;-66
2023/08/16 01:05:10;;;;;;;21.30;14.80;;;;;;;25.12;90.55;100038.05;105932;1257;68951;-68
2023/08/16 01:07:36;;;;;;;16.50;14.50;;;;;;;25.06;90.45;100041.30;105921;1257;72829;-67
2023/08/16 01:10:04;;;;;;;19.90;15.20;;;;;;;24.89;91.52;100037.83;105914;1254;61974;-66
2023/08/16 01:12:39;;;;;;;20.20;16.40;;;;;;;24.82;91.97;100035.35;105935;1254;61624;-67
2023/08/16 01:15:13;;;;;;;19.20;14.50;;;;;;;24.71;92.41;100034.44;105938;1256;74821;-67
2023/08/16 01:17:40;;;;;;;18.20;16.10;;;;;;;24.72;92.23;100033.70;105912;1257;68906;-68
2023/08/16 01:20:07;;;;;;;20.00;17.80;;;;;;;24.67;92.48;100033.35;105888;1257;73610;-68
2023/08/16 01:23:10;;;;;;;23.60;20.40;;;;;;;24.66;92.53;100035.52;105813;1254;61780;-72
2023/08/16 01:26:06;;;;;;;28.10;20.40;;;;;;;24.52;93.62;100039.61;105925;1259;60401;-69
2023/08/16 01:28:33;;;;;;;24.10;18.10;;;;;;;24.51;93.50;100038.98;105880;1257;74399;-66
2023/08/16 01:31:04;;;;;;;17.70;15.90;;;;;;;24.49;93.33;100038.15;105949;1257;66724;-67
2023/08/16 01:33:30;;;;;;;18.70;16.70;;;;;;;24.58;92.55;100034.98;105895;1256;72390;-67
2023/08/16 01:35:57;;;;;;;18.30;16.30;;;;;;;24.64;92.14;100035.42;105846;1256;61876;-67
2023/08/16 01:38:25;;;;;;;20.90;17.80;;;;;;;24.71;91.29;100034.73;105882;1257;61262;-68
2023/08/16 01:40:57;;;;;;;23.70;16.10;;;;;;;24.68;91.35;100031.41;105698;1259;75140;-66
2023/08/16 01:43:24;;;;;;;18.10;16.10;;;;;;;24.65;91.57;100031.77;105729;1257;69006;-71
2023/08/16 01:45:51;;;;;;;28.40;18.00;;;;;;;24.66;91.93;100034.63;105669;1267;73051;-67
2023/08/16 01:48:19;;;;;;;18.20;16.10;;;;;;;24.64;92.45;100033.15;105887;1258;62094;-68
2023/08/16 01:50:46;;;;;;;17.80;16.00;;;;;;;24.57;92.90;100031.81;105902;1257;62207;-68
2023/08/16 01:53:12;;;;;;;23.20;15.90;;;;;;;24.51;93.34;100035.88;105878;1257;75087;-67
2023/08/16 01:55:39;;;;;;;20.10;15.00;;;;;;;24.51;93.19;100038.95;105934;1256;69097;-67
2023/08/16 01:58:07;;;;;;;19.50;15.70;;;;;;;24.46;93.57;100037.09;105891;1254;73057;-68
2023/08/16 02:00:35;;;;;;;19.80;14.90;;;;;;;24.48;93.03;100037.09;105937;1256;62654;-68
2023/08/16 02:03:03;;;;;;;24.00;16.30;;;;;;;24.45;92.66;100036.69;105947;1257;62238;-68
2023/08/16 02:05:30;;;;;;;23.40;16.80;;;;;;;24.52;91.92;100035.07;105915;1257;74850;-70
2023/08/16 02:07:57;;;;;;;22.80;17.20;;;;;;;24.40;92.67;100032.32;105873;1259;69126;-68
2023/08/16 02:10:24;;;;;;;22.30;17.60;;;;;;;24.38;93.12;100031.02;105921;1257;73106;-69
2023/08/16 02:12:51;;;;;;;26.20;19.40;;;;;;;24.33;93.54;100032.20;105870;1255;61581;-67
2023/08/16 02:15:18;;;;;;;33.10;20.50;;;;;;;24.26;94.71;100032.34;105881;1258;61275;-68
2023/08/16 02:17:44;;;;;;;20.80;17.70;;;;;;;24.27;94.86;100028.48;105850;1259;75068;-68
2023/08/16 02:20:12;;;;;;;23.60;19.20;;;;;;;24.27;94.56;100027.99;105933;1254;68993;-69
2023/08/16 02:22:39;;;;;;;33.50;19.30;;;;;;;24.19;95.04;100029.58;105940;1254;72214;-68
2023/08/16 02:25:11;;;;;;;29.20;20.80;;;;;;;24.11;95.76;100026.05;105504;1257;61576;-69
2023/08/16 02:27:39;;;;;;;31.10;19.10;;;;;;;24.07;95.97;100024.81;105834;1260;61327;-70
2023/08/16 02:30:06;;;;;;;25.40;20.50;;;;;;;24.12;95.17;100025.95;105994;1257;75048;-68
2023/08/16 02:32:33;;;;;;;31.70;22.50;;;;;;;24.03;95.84;100024.65;105932;1255;68920;-67
2023/08/16 02:35:01;;;;;;;25.60;20.10;;;;;;;24.09;95.76;100025.61;105893;1252;73084;-69
2023/08/16 02:37:29;;;;;;;22.00;19.60;;;;;;;24.24;94.51;100031.34;105859;1254;61686;-68
2023/08/16 02:39:57;;;;;;;30.20;20.30;;;;;;;24.28;93.90;100031.97;105894;1254;61237;-68
2023/08/16 02:42:24;;;;;;;28.10;19.30;;;;;;;24.38;93.00;100035.63;105907;1258;75040;-69
2023/08/16 02:44:50;;;;;;;29.40;21.50;;;;;;;24.31;93.25;100036.14;105932;1257;69116;-67
2023/08/16 02:47:17;;;;;;;26.00;21.10;;;;;;;24.40;92.49;100036.09;105899;1253;73193;-69
2023/08/16 02:49:46;;;;;;;32.20;19.50;;;;;;;24.46;91.87;100035.94;105918;1253;61317;-75
2023/08/16 02:52:13;;;;;;;23.60;19.00;;;;;;;24.39;91.78;100036.05;105901;1254;61365;-70
2023/08/16 02:54:40;;;;;;;24.00;18.70;;;;;;;24.26;92.99;100033.75;105896;1255;75095;-68
2023/08/16 02:57:08;;;;;;;29.40;19.80;;;;;;;24.34;92.49;100040.50;105839;1257;69160;-74
2023/08/16 02:59:42;;;;;;;22.30;19.00;;;;;;;24.50;91.30;100040.41;105544;1257;73070;-75
2023/08/16 03:02:08;;;;;;;24.00;20.20;;;;;;;24.66;89.72;100042.63;105904;1254;61646;-75
2023/08/16 03:04:44;;;;;;;27.80;20.40;;;;;;;24.69;89.28;100043.67;105896;1257;61561;-74
2023/08/16 03:07:11;;;;;;;34.80;21.00;;;;;;;24.53;90.27;100050.64;105857;1256;75155;-72
2023/08/16 03:09:38;;;;;;;30.40;20.80;;;;;;;24.49;90.54;100051.66;105596;1253;68457;-70
2023/08/16 03:12:06;;;;;;;26.90;19.10;;;;;;;24.48;90.68;100053.27;105547;1258;73333;-74
2023/08/16 03:14:33;;;;;;;27.50;22.30;;;;;;;24.53;90.16;100052.45;105873;1254;61819;-73
2023/08/16 03:17:00;;;;;;;22.80;20.10;;;;;;;24.63;89.44;100049.98;105606;1254;61205;-72
2023/08/16 03:19:28;;;;;;;23.80;20.20;;;;;;;24.54;90.05;100050.15;105897;1257;74390;-74
2023/08/16 03:21:56;;;;;;;24.80;20.20;;;;;;;24.44;90.87;100050.83;105894;1254;69177;-68
2023/08/16 03:24:24;;;;;;;25.90;19.40;;;;;;;24.46;90.97;100053.48;105846;1257;73108;-68
2023/08/16 03:26:51;;;;;;;31.70;18.80;;;;;;;24.57;90.28;100054.71;105922;1257;62028;-67
2023/08/16 03:29:18;;;;;;;43.80;21.00;;;;;;;24.72;89.43;100053.10;105893;1254;61365;-67
2023/08/16 03:31:48;;;;;;;54.80;21.40;;;;;;;24.95;88.00;100058.73;105909;1257;74991;-68
2023/08/16 03:34:16;;;;;;;77.40;26.10;;;;;;;25.09;87.47;100054.05;105888;1254;69255;-70
2023/08/16 03:36:43;;;;;;;49.80;25.70;;;;;;;25.34;86.51;100058.77;105923;1256;72625;-70
2023/08/16 03:39:11;;;;;;;31.90;22.30;;;;;;;25.61;85.16;100060.46;105600;1260;61935;-71
2023/08/16 03:41:38;;;;;;;27.80;18.90;;;;;;;25.87;83.38;100060.92;105906;1254;61269;-67
2023/08/16 03:44:08;;;;;;;39.60;21.20;;;;;;;25.96;82.36;100063.65;105891;1257;75128;-69
2023/08/16 03:46:34;;;;;;;37.60;21.30;;;;;;;26.12;80.97;100069.41;105560;1254;69450;-69
2023/08/16 03:49:02;;;;;;;39.40;19.70;;;;;;;26.26;80.01;100067.98;105603;1258;73290;-68
2023/08/16 03:51:29;;;;;;;30.10;18.70;;;;;;;26.46;78.44;100074.39;105887;1254;61819;-68
2023/08/16 03:53:56;;;;;;;38.60;18.60;;;;;;;26.36;78.96;100077.54;105946;1254;61214;-68
2023/08/16 03:56:23;;;;;;;29.30;18.20;;;;;;;26.44;78.33;100081.23;105931;1257;74578;-68
2023/08/16 03:58:50;;;;;;;24.50;17.20;;;;;;;26.38;77.96;100079.48;105899;1257;69228;-74
2023/08/16 04:01:18;;;;;;;23.20;17.60;;;;;;;26.43;77.48;100080.27;105864;1254;73199;-67
2023/08/16 04:03:45;;;;;;;19.60;15.90;;;;;;;26.83;75.04;100087.81;105599;1257;61841;-69
2023/08/16 04:06:12;;;;;;;22.90;15.30;;;;;;;27.10;72.50;100091.07;105782;1259;61308;-67
2023/08/16 04:08:39;;;;;;;23.70;13.90;;;;;;;27.28;71.21;100090.56;105902;1254;75748;-69
2023/08/16 04:11:06;;;;;;;19.20;13.30;;;;;;;27.56;69.84;100094.11;105955;1254;69084;-69
2023/08/16 04:13:33;;;;;;;25.50;13.70;;;;;;;27.84;68.23;100099.32;105668;1254;73110;-69
2023/08/16 04:16:00;;;;;;;21.10;13.80;;;;;;;28.07;65.83;100098.45;105854;1254;61562;-67
2023/08/16 04:18:27;;;;;;;19.50;14.50;;;;;;;28.08;63.92;100105.81;105939;1257;61231;-69
2023/08/16 04:20:55;;;;;;;17.70;12.60;;;;;;;28.36;62.38;100108.11;105892;1258;74957;-72
2023/08/16 04:23:22;;;;;;;90.90;18.20;;;;;;;28.44;60.45;100108.69;105901;1256;67725;-69
2023/08/16 04:25:49;;;;;;;44.10;14.20;;;;;;;28.75;59.82;100110.70;105973;1254;72609;-68
2023/08/16 04:28:16;;;;;;;21.30;13.60;;;;;;;28.96;57.37;100105.75;105899;1257;61937;-68
2023/08/16 04:30:43;;;;;;;17.20;11.50;;;;;;;28.98;55.63;100107.13;105940;1254;61426;-69
2023/08/16 04:33:10;;;;;;;24.50;11.70;;;;;;;29.25;54.77;100109.02;105899;1257;75552;-69
2023/08/16 04:35:37;;;;;;;22.00;11.40;;;;;;;29.66;55.32;100106.81;105943;1258;69096;-69
2023/08/16 04:38:06;;;;;;;28.80;12.40;;;;;;;30.05;54.56;100109.22;105881;1254;72371;-68
2023/08/16 04:40:33;;;;;;;32.30;12.10;;;;;;;30.58;52.65;100113.63;105975;1256;62279;-70
2023/08/16 04:42:59;;;;;;;28.00;11.30;;;;;;;30.93;50.83;100112.66;105934;1257;61315;-71
2023/08/16 04:45:26;;;;;;;16.20;10.70;;;;;;;31.02;49.51;100116.34;105896;1257;75635;-69
2023/08/16 04:47:53;;;;;;;24.20;10.90;;;;;;;30.87;49.07;100120.19;105939;1254;68667;-69
2023/08/16 04:50:21;;;;;;;31.40;10.70;;;;;;;31.18;48.17;100124.02;105973;1254;73149;-69
2023/08/16 04:52:48;;;;;;;18.90;11.20;;;;;;;31.39;47.89;100128.86;105889;1253;61356;-68
2023/08/16 04:55:17;;;;;;;30.00;11.10;;;;;;;31.59;46.97;100131.28;105951;1257;61203;-69
2023/08/16 04:57:44;;;;;;;36.90;12.20;;;;;;;31.83;46.23;100134.73;105903;1257;75260;-69
2023/08/16 05:00:12;;;;;;;;;;;;;;;32.28;45.46;100138.52;105975;1254;69150;-69
2023/08/16 05:02:50;;;;;;;25.50;11.40;;;;;;;32.60;44.24;100140.92;105898;1254;63994;-68
2023/08/16 05:05:17;;;;;;;43.30;11.50;;;;;;;32.72;43.57;100145.52;105930;1254;61148;-68
2023/08/16 05:07:44;;;;;;;22.90;9.70;;;;;;;32.89;43.91;100146.45;105957;1255;61267;-72
2023/08/16 05:10:12;;;;;;;27.60;10.90;;;;;;;32.97;43.34;100145.46;105949;1254;66071;-67
2023/08/16 05:12:40;;;;;;;40.40;10.70;;;;;;;32.84;43.00;100151.12;105765;1260;61412;-67
2023/08/16 05:15:08;;;;;;;35.30;10.60;;;;;;;32.80;43.31;100148.97;105931;1254;63777;-68
2023/08/16 05:17:35;;;;;;;18.50;10.20;;;;;;;32.82;43.42;100148.89;105961;1254;61262;-68
2023/08/16 05:20:04;;;;;;;20.90;11.40;;;;;;;32.91;43.30;100145.52;105919;1253;61238;-69
2023/08/16 05:22:31;;;;;;;18.40;9.30;;;;;;;33.12;43.13;100148.80;105953;1257;65770;-69
2023/08/16 05:24:58;;;;;;;24.00;12.00;;;;;;;33.26;42.63;100152.41;105939;1254;61331;-68
2023/08/16 05:27:25;;;;;;;26.30;11.30;;;;;;;33.44;42.49;100155.39;105908;1257;64002;-72
2023/08/16 05:29:52;;;;;;;25.80;9.90;;;;;;;33.65;41.81;100157.91;105876;1256;61214;-68
2023/08/16 05:32:19;;;;;;;20.70;8.90;;;;;;;33.92;41.58;100158.88;105624;1255;61295;-69
2023/08/16 05:34:45;;;;;;;15.60;8.30;;;;;;;34.35;40.59;100156.86;105884;1256;65952;-68
2023/08/16 05:37:12;;;;;;;13.20;7.70;;;;;;;34.57;38.45;100159.69;105970;1254;61333;-69
2023/08/16 05:39:39;;;;;;;20.80;8.40;;;;;;;34.71;37.67;100159.41;105953;1255;63920;-70
2023/08/16 05:42:09;;;;;;;17.20;7.90;;;;;;;35.00;37.53;100165.37;105916;1253;61330;-68
2023/08/16 05:44:36;;;;;;;12.00;8.00;;;;;;;35.34;36.94;100169.98;105990;1254;61267;-68
2023/08/16 05:47:03;;;;;;;15.30;7.50;;;;;;;35.76;36.35;100172.02;105924;1255;65807;-69
2023/08/16 05:49:30;;;;;;;23.30;7.30;;;;;;;36.19;35.55;100172.48;105912;1257;61256;-70
2023/08/16 05:51:57;;;;;;;70.60;10.30;;;;;;;36.56;35.34;100175.00;105927;1257;63639;-68
2023/08/16 05:54:24;;;;;;;17.60;8.10;;;;;;;36.94;34.84;100176.48;105913;1253;61315;-69
2023/08/16 05:56:51;;;;;;;17.20;8.10;;;;;;;37.12;34.34;100178.12;105873;1254;61283;-68
2023/08/16 05:59:18;;;;;;;32.20;9.10;;;;;;;37.25;33.41;100177.69;105889;1256;65838;-69
2023/08/16 06:01:45;;;;;;;;;;;;;;;37.43;32.97;100179.52;105954;1252;62322;-70
2023/08/16 06:04:11;;;;;;;12.70;6.70;;;;;;;37.18;32.15;100178.74;105924;1257;63909;-70
2023/08/16 06:06:38;;;;;;;12.70;6.30;;;;;;;37.13;32.08;100179.06;105969;1253;61265;-69
2023/08/16 06:09:05;;;;;;;22.40;6.80;;;;;;;37.35;32.25;100174.91;105971;1253;61259;-71
2023/08/16 06:11:32;;;;;;;17.70;7.00;;;;;;;37.47;31.85;100176.90;105934;1256;65885;-67
2023/08/16 06:14:00;;;;;;;15.20;6.70;;;;;;;37.43;31.83;100178.31;105931;1254;61346;-67
2023/08/16 06:16:27;;;;;;;12.20;7.20;;;;;;;37.48;31.49;100176.88;105932;1254;63903;-69
2023/08/16 06:18:55;;;;;;;12.90;6.30;;;;;;;37.67;32.21;100175.98;105876;1253;61221;-68
2023/08/16 06:21:22;;;;;;;27.30;8.40;;;;;;;37.74;32.90;100173.95;105939;1253;61282;-69
2023/08/16 06:23:49;;;;;;;25.20;8.60;;;;;;;37.70;33.58;100172.96;105674;1259;66087;-70
2023/08/16 06:26:16;;;;;;;18.70;7.50;;;;;;;37.66;33.36;100178.09;105926;1252;61369;-69
2023/08/16 06:28:46;;;;;;;19.00;8.00;;;;;;;37.51;33.53;100181.41;105910;1254;63780;-69
2023/08/16 06:31:14;;;;;;;13.50;7.10;;;;;;;37.57;33.33;100181.09;105946;1253;61345;-71
2023/08/16 06:33:46;;;;;;;12.30;6.10;;;;;;;37.29;33.62;100176.98;105874;1253;61249;-73
2023/08/16 06:36:13;;;;;;;16.20;7.40;;;;;;;37.04;34.00;100173.31;105924;1256;66003;-68
2023/08/16 06:38:39;;;;;;;16.30;7.30;;;;;;;37.50;33.31;100180.38;105934;1254;61379;-68
2023/08/16 06:41:06;;;;;;;;;;;;;;;37.60;33.29;100182.09;105913;1253;64047;-69
2023/08/16 06:43:33;;;;;;;;;;;;;;;37.61;32.90;100180.31;105914;1254;61340;-69
2023/08/16 06:46:00;;;;;;;42.60;9.10;;;;;;;37.96;32.67;100178.71;105907;1252;61260;-69
2023/08/16 06:48:27;;;;;;;21.50;7.50;;;;;;;38.38;32.07;100176.40;105976;1254;65623;-70
2023/08/16 06:50:55;;;;;;;13.00;7.00;;;;;;;38.59;31.64;100175.61;105938;1253;61415;-69
2023/08/16 06:53:21;;;;;;;22.90;7.50;;;;;;;38.62;31.54;100175.64;105865;1255;63804;-72
2023/08/16 06:55:48;;;;;;;18.50;8.10;;;;;;;38.66;31.13;100174.89;105920;1254;62360;-70
2023/08/16 06:58:15;;;;;;;20.30;7.40;;;;;;;39.20;30.39;100174.67;105709;1254;61331;-70
2023/08/16 07:00:45;;;;;;;15.80;7.10;;;;;;;39.43;30.27;100173.63;105920;1253;65949;-68
2023/08/16 07:03:12;;;;;;;128.70;15.20;;;;;;;39.37;29.98;100175.52;105959;1254;61247;-69
2023/08/16 07:05:39;;;;;;;16.80;6.30;;;;;;;38.98;30.28;100177.23;105881;1257;63821;-69
2023/08/16 07:08:06;;;;;;;;;;;;;;;38.69;30.73;100175.00;105928;1253;61233;-70
2023/08/16 07:10:34;;;;;;;15.90;6.40;;;;;;;38.28;30.74;100176.82;105940;1252;61221;-70
2023/08/16 07:13:02;;;;;;;11.90;5.80;;;;;;;38.17;30.69;100177.00;105894;1256;65843;-70
2023/08/16 07:15:29;;;;;;;15.10;5.30;;;;;;;38.47;30.56;100177.90;105927;1253;61292;-70
2023/08/16 07:17:56;;;;;;;16.80;5.70;;;;;;;38.72;30.36;100178.30;105971;1254;63723;-69
2023/08/16 07:20:23;;;;;;;;;;;;;;;38.86;30.00;100181.89;105915;1254;61333;-69
2023/08/16 07:22:50;;;;;;;9.60;4.80;;;;;;;38.90;29.79;100187.56;105923;1253;61353;-70
2023/08/16 07:25:17;;;;;;;7.20;4.50;;;;;;;38.82;29.36;100188.28;105911;1252;65786;-69
2023/08/16 07:27:43;;;;;;;8.50;5.30;;;;;;;38.65;29.35;100182.05;105875;1253;61340;-70
2023/08/16 07:30:12;;;;;;;9.20;4.40;;;;;;;38.63;29.21;100180.48;105944;1253;64007;-70
2023/08/16 07:32:39;;;;;;;10.80;4.40;;;;;;;37.99;29.63;100177.92;105914;1257;61222;-70
2023/08/16 07:35:06;;;;;;;26.20;5.00;;;;;;;37.96;29.26;100180.08;105901;1254;61248;-71
2023/08/16 07:37:33;;;;;;;13.40;4.10;;;;;;;38.09;29.12;100178.92;105961;1254;64526;-71
2023/08/16 07:40:01;;;;;;;12.70;4.00;;;;;;;38.15;29.35;100178.47;105948;1257;61319;-69
2023/08/16 07:42:28;;;;;;;8.40;4.00;;;;;;;38.16;29.23;100177.83;105938;1252;63585;-71
2023/08/16 07:44:57;;;;;;;;;;;;;;;38.40;28.53;100175.48;105999;1253;61323;-69
2023/08/16 07:47:25;;;;;;;9.50;4.00;;;;;;;38.43;29.05;100171.66;105931;1253;61921;-69
2023/08/16 07:49:52;;;;;;;5.00;3.40;;;;;;;38.22;28.35;100172.58;105962;1257;65830;-69
2023/08/16 07:52:19;;;;;;;50.80;7.90;;;;;;;38.02;27.56;100174.20;105948;1253;61317;-69
2023/08/16 07:54:45;;;;;;;17.40;4.30;;;;;;;38.11;27.32;100176.30;105882;1254;63997;-69
2023/08/16 07:57:14;;;;;;;8.10;3.10;;;;;;;38.44;26.90;100172.13;105883;1253;61362;-70
2023/08/16 07:59:41;;;;;;;12.00;3.30;;;;;;;38.68;27.00;100171.90;105976;1253;61311;-70
2023/08/16 08:02:08;;;;;;;9.80;3.60;;;;;;;38.54;27.63;100167.37;105905;1257;65797;-69
2023/08/16 08:04:35;;;;;;;6.80;3.70;;;;;;;38.23;27.83;100164.34;105947;1255;61292;-70
2023/08/16 08:07:03;;;;;;;10.10;3.50;;;;;;;38.53;28.00;100159.61;105964;1253;63892;-69
2023/08/16 08:09:31;;;;;;;7.60;3.40;;;;;;;38.86;27.73;100162.16;105953;1254;62357;-69
2023/08/16 08:11:58;;;;;;;11.10;3.60;;;;;;;39.13;27.28;100159.83;105974;1252;61353;-69
2023/08/16 08:14:25;;;;;;;10.40;4.00;;;;;;;39.12;27.58;100159.14;105943;1257;65724;-71
2023/08/16 08:16:53;;;;;;;12.60;4.00;;;;;;;38.91;27.59;100163.10;105921;1253;61345;-70
2023/08/16 08:19:20;;;;;;;112.60;13.40;;;;;;;38.95;27.71;100161.60;105717;1252;63910;-72
2023/08/16 08:21:47;;;;;;;11.20;4.40;;;;;;;39.26;27.53;100161.09;105926;1253;61237;-69
2023/08/16 08:24:15;;;;;;;;;;;;;;;39.74;26.40;100166.94;105949;1254;61232;-67
2023/08/16 08:26:43;;;;;;;8.50;3.80;;;;;;;40.01;26.31;100169.27;105910;1256;66313;-71
2023/08/16 08:29:10;;;;;;;6.40;4.00;;;;;;;40.02;26.93;100168.83;105921;1257;62389;-71
2023/08/16 08:31:37;;;;;;;4.80;3.80;;;;;;;39.96;26.99;100170.77;105893;1252;63955;-70
2023/08/16 08:34:04;;;;;;;7.20;3.50;;;;;;;40.10;27.02;100171.02;105907;1254;61113;-69
2023/08/16 08:36:31;;;;;;;;;;;;;;;40.23;26.59;100174.63;105934;1253;61265;-69
2023/08/16 08:38:58;;;;;;;8.50;4.30;;;;;;;40.18;26.86;100171.30;105118;1257;1080054;-66
2023/08/16 08:41:24;;;;;;;9.90;4.10;;;;;;;39.82;27.12;100173.73;105930;1253;62407;-75
2023/08/16 08:44:05;;;;;;;5.00;4.00;;;;;;;40.21;26.92;100170.66;105702;1253;63819;-71
2023/08/16 08:46:32;;;;;;;9.50;4.00;;;;;;;40.16;26.79;100170.15;105933;1252;61359;-71
2023/08/16 08:48:59;;;;;;;;;;;;;;;40.16;27.13;100170.14;105804;1253;61261;-69
2023/08/16 08:51:30;;;;;;;9.10;3.80;;;;;;;40.02;27.42;100170.68;105832;1253;65934;-70
2023/08/16 08:53:57;;;;;;;10.70;4.30;;;;;;;39.92;27.24;100169.98;105929;1253;61336;-72
2023/08/16 08:56:24;;;;;;;9.60;4.20;;;;;;;40.11;26.90;100173.33;105676;1253;64187;-71
2023/08/16 08:58:52;;;;;;;4.80;4.00;;;;;;;40.53;26.70;100173.42;105714;1254;61227;-71
2023/08/16 09:01:27;;;;;;;8.50;4.10;;;;;;;40.82;26.37;100171.65;105620;1259;61362;-70
2023/08/16 09:03:54;;;;;;;8.10;4.20;;;;;;;40.94;26.81;100170.04;105859;1254;65970;-71
2023/08/16 09:06:21;;;;;;;5.60;4.10;;;;;;;40.92;27.07;100168.23;105702;1253;61658;-69
2023/08/16 09:08:48;;;;;;;8.10;4.10;;;;;;;40.90;27.06;100166.45;105863;1257;63892;-70
2023/08/16 09:11:15;;;;;;;12.00;4.60;;;;;;;40.76;27.16;100161.60;105604;1253;61324;-67
2023/08/16 09:13:41;;;;;;;;;;;;;;;40.37;27.78;100161.02;105752;1253;61298;-68
2023/08/16 09:16:08;;;;;;;5.70;3.80;;;;;;;40.11;27.79;100158.95;105646;1259;65676;-66
2023/08/16 09:18:36;;;;;;;7.60;3.70;;;;;;;39.85;27.35;100157.79;105733;1257;61890;-69
2023/08/16 09:21:03;;;;;;;6.70;4.00;;;;;;;40.16;26.67;100159.48;105695;1259;64088;-69
2023/08/16 09:23:32;;;;;;;8.30;3.80;;;;;;;40.60;25.75;100160.05;105631;1257;61423;-73
2023/08/16 09:25:59;;;;;;;5.90;3.90;;;;;;;40.73;25.44;100158.42;105496;1263;61291;-73
2023/08/16 09:28:29;;;;;;;11.70;4.30;;;;;;;40.51;25.87;100154.60;106725;1259;65895;-68
2023/08/16 09:30:56;;;;;;;7.80;4.30;;;;;;;40.26;26.71;100154.79;109217;1256;58874;-70
2023/08/16 09:33:27;;;;;;;70.70;8.60;;;;;;;40.58;27.26;100150.05;109042;1257;62654;-70
2023/08/16 09:35:57;;;;;;;7.00;4.10;;;;;;;40.96;26.26;100151.71;106633;1255;62308;-72
2023/08/16 09:38:24;;;;;;;7.30;4.00;;;;;;;40.76;26.13;100150.43;105638;1256;61314;-72
2023/08/16 09:40:54;;;;;;;9.70;3.90;;;;;;;40.70;26.21;100152.38;105665;1259;65622;-72
2023/08/16 09:43:20;;;;;;;5.70;4.10;;;;;;;40.42;26.20;100152.03;105629;1257;69125;-68
2023/08/16 09:45:54;;;;;;;6.70;3.70;;;;;;;40.72;26.20;100148.61;105610;1259;72850;-69
2023/08/16 09:48:25;;;;;;;8.70;4.00;;;;;;;41.02;25.66;100152.23;105905;1253;62280;-69
2023/08/16 09:51:00;;;;;;;5.50;3.10;;;;;;;41.00;24.93;100149.43;105940;1257;61165;-70
2023/08/16 09:53:36;;;;;;;5.40;3.00;;;;;;;40.37;24.43;100145.29;105831;1256;65901;-69
2023/08/16 09:56:06;;;;;;;5.90;3.00;;;;;;;40.10;24.86;100143.00;105706;1253;61328;-69
2023/08/16 09:58:36;;;;;;;5.80;3.00;;;;;;;40.33;25.05;100143.59;105902;1253;63828;-70
2023/08/16 10:01:03;;;;;;;5.50;3.20;;;;;;;40.74;24.03;100145.20;105809;1256;61405;-70
2023/08/16 10:03:55;;;;;;;5.30;3.20;;;;;;;40.87;23.93;100141.98;105837;1253;61315;-72
2023/08/16 10:06:26;;;;;;;7.20;3.50;;;;;;;40.42;25.03;100136.41;106003;1252;65915;-67
2023/08/16 10:08:56;;;;;;;5.20;3.90;;;;;;;41.17;24.48;100138.96;105957;1253;61261;-70
2023/08/16 10:11:23;;;;;;;15.60;4.70;;;;;;;41.26;24.36;100134.38;105921;1253;63735;-70
2023/08/16 10:13:50;;;;;;;11.50;4.30;;;;;;;40.93;24.79;100129.27;105903;1253;61255;-73
2023/08/16 10:16:18;;;;;;;;;;;;;;;41.09;24.70;100132.34;105722;1253;61498;-70
2023/08/16 10:18:46;;;;;;;8.50;4.40;;;;;;;41.01;24.59;100130.17;105916;1257;65970;-71
2023/08/16 10:21:17;;;;;;;14.40;4.30;;;;;;;40.76;25.17;100123.44;105826;1253;61335;-71
2023/08/16 10:23:44;;;;;;;14.30;4.90;;;;;;;40.74;25.28;100125.48;105939;1254;63758;-70
2023/08/16 10:26:20;;;;;;;;;;;;;;;40.57;25.53;100125.08;105905;1253;61128;-69
2023/08/16 10:28:51;;;;;;;9.30;3.70;;;;;;;40.75;25.38;100124.52;105927;1253;61904;-69
2023/08/16 10:31:20;;;;;;;9.70;4.30;;;;;;;40.92;25.40;100122.85;105909;1253;64688;-69
2023/08/16 10:33:48;;;;;;;9.90;4.50;;;;;;;40.84;25.45;100117.80;105944;1253;61440;-69
2023/08/16 10:36:16;;;;;;;7.10;3.90;;;;;;;41.35;24.77;100123.32;105902;1253;63746;-72
2023/08/16 10:38:43;;;;;;;7.90;4.10;;;;;;;41.63;24.22;100128.78;105896;1253;61160;-72
2023/08/16 10:41:13;;;;;;;;;;;;;;;41.91;24.15;100127.34;105967;1252;61267;-69
2023/08/16 10:43:46;;;;;;;3.90;3.60;;;;;;;41.95;23.74;100123.28;105943;1253;64464;-71
2023/08/16 10:46:30;;;;;;;8.30;3.90;;;;;;;41.98;23.51;100124.36;105910;1253;61299;-72
2023/08/16 10:49:02;;;;;;;7.50;3.90;;;;;;;41.58;24.03;100123.11;106015;1253;63081;-71
2023/08/16 10:51:30;;;;;;;12.20;4.00;;;;;;;41.28;24.67;100115.41;105889;1257;61373;-69
2023/08/16 10:53:57;;;;;;;6.20;4.10;;;;;;;41.62;24.48;100114.42;105915;1253;61235;-71
2023/08/16 10:56:24;;;;;;;9.50;3.90;;;;;;;41.63;24.00;100119.94;105924;1256;65841;-69
2023/08/16 10:58:52;;;;;;;4.40;3.70;;;;;;;41.31;24.19;100118.23;105882;1253;62388;-70
2023/08/16 11:01:20;;;;;;;9.40;4.10;;;;;;;40.81;24.75;100108.67;105917;1253;62774;-70
2023/08/16 11:03:49;;;;;;;12.70;4.10;;;;;;;40.82;25.32;100109.48;105853;1253;61234;-70
2023/08/16 11:06:19;;;;;;;12.60;4.10;;;;;;;41.28;25.13;100112.36;105724;1253;61391;-70
2023/08/16 11:08:47;;;;;;;9.70;3.70;;;;;;;41.45;24.67;100109.95;105905;1256;65888;-72
2023/08/16 11:11:14;;;;;;;10.80;4.50;;;;;;;41.40;24.38;100106.73;105670;1253;61277;-72
2023/08/16 11:13:41;;;;;;;;;;;;;;;41.41;24.25;100102.79;105682;1253;63991;-70
2023/08/16 11:16:09;;;;;;;39.10;7.00;;;;;;;41.02;24.71;100097.21;105918;1253;62320;-70